Time;durP1;ratioP1;P1;durP2;ratioP2;P2;SDS_P1;SDS_P2;PMS_P1;PMS_P2;Temp;Humidity;BMP_temperature;BMP_pressure;BME280_temperature;BME280_humidity;BME280_pressure;Samples;Min_cycle;Max_cycle;Signal;HPM_P1;HPM_P2
2021/10/31 00:00:51;;;;;;;20.08;6.28;;;;;;;10.19;100.00;100616.88;5016457;28;20026;-76
2021/10/31 00:03:17;;;;;;;12.60;5.32;;;;;;;10.19;100.00;100618.63;5017063;28;20116;-74
2021/10/31 00:05:43;;;;;;;13.45;5.65;;;;;;;10.17;100.00;100618.56;5018015;28;20389;-76
2021/10/31 00:08:08;;;;;;;21.05;5.95;;;;;;;10.12;100.00;100609.75;5016947;28;20029;-76
2021/10/31 00:10:34;;;;;;;18.48;5.57;;;;;;;10.10;100.00;100614.09;5015224;28;20041;-76
2021/10/31 00:13:00;;;;;;;19.63;5.50;;;;;;;10.06;100.00;100618.41;5015844;28;20125;-75
2021/10/31 00:15:25;;;;;;;16.45;5.57;;;;;;;10.03;100.00;100618.38;5015683;28;20108;-76
2021/10/31 00:17:51;;;;;;;21.35;5.40;;;;;;;10.01;100.00;100616.56;5013098;28;20187;-75
2021/10/31 00:20:16;;;;;;;14.88;5.40;;;;;;;9.98;100.00;100622.66;5013558;28;20045;-76
2021/10/31 00:22:44;;;;;;;17.83;6.20;;;;;;;9.96;100.00;100630.53;5013740;28;20041;-75
2021/10/31 00:25:10;;;;;;;15.90;5.68;;;;;;;9.96;100.00;100640.19;5015458;28;20064;-75
2021/10/31 00:27:36;;;;;;;19.13;6.13;;;;;;;9.92;100.00;100641.88;5015606;28;20049;-76
2021/10/31 00:30:03;;;;;;;18.55;5.90;;;;;;;9.92;100.00;100647.13;5015868;28;20076;-77
2021/10/31 00:32:28;;;;;;;15.38;6.32;;;;;;;9.90;100.00;100642.69;5016837;28;20040;-75
2021/10/31 00:34:53;;;;;;;11.98;5.32;;;;;;;9.91;100.00;100650.59;5015415;28;20038;-76
2021/10/31 00:37:19;;;;;;;10.43;5.15;;;;;;;9.88;100.00;100649.69;5014796;28;20033;-75
2021/10/31 00:39:44;;;;;;;15.57;5.32;;;;;;;9.93;100.00;100642.78;5008017;28;20064;-75
2021/10/31 00:42:10;;;;;;;17.23;5.50;;;;;;;9.90;100.00;100643.59;5015378;28;20076;-74
2021/10/31 00:44:35;;;;;;;14.65;5.82;;;;;;;9.91;100.00;100644.47;5015870;28;20084;-76
2021/10/31 00:47:00;;;;;;;20.45;5.82;;;;;;;9.96;100.00;100637.56;5014418;28;20033;-76
2021/10/31 00:49:26;;;;;;;16.52;5.18;;;;;;;10.00;100.00;100642.00;5016272;28;20026;-75
2021/10/31 00:51:52;;;;;;;14.63;5.70;;;;;;;10.02;100.00;100645.50;5014454;28;20061;-76
2021/10/31 00:54:17;;;;;;;17.73;5.20;;;;;;;10.07;100.00;100637.72;5012378;28;20029;-75
2021/10/31 00:56:42;;;;;;;12.50;5.53;;;;;;;10.16;100.00;100639.59;5015974;28;20026;-76
2021/10/31 00:59:08;;;;;;;13.25;4.82;;;;;;;10.18;100.00;100651.03;5014382;28;20042;-75
2021/10/31 01:01:34;;;;;;;14.00;5.30;;;;;;;10.16;100.00;100655.38;5014223;28;20037;-76
2021/10/31 01:04:00;;;;;;;15.93;4.75;;;;;;;10.15;100.00;100654.50;5013282;28;20034;-75
2021/10/31 01:06:46;;;;;;;13.85;5.15;;;;;;;10.17;100.00;100660.63;5012918;28;20034;-76
2021/10/31 01:09:19;;;;;;;14.52;5.28;;;;;;;10.17;100.00;100659.75;5014588;28;20473;-76
2021/10/31 01:12:12;;;;;;;20.55;4.70;;;;;;;10.16;100.00;100671.13;5015991;28;20038;-77
2021/10/31 01:14:37;;;;;;;17.38;4.70;;;;;;;10.13;100.00;100654.47;5008612;28;20037;-76
2021/10/31 01:17:25;;;;;;;11.40;4.78;;;;;;;10.12;100.00;100651.81;5013014;28;20482;-77
2021/10/31 01:20:14;;;;;;;13.27;5.22;;;;;;;10.11;100.00;100645.66;5014261;28;20057;-75
2021/10/31 01:23:10;;;;;;;13.05;5.25;;;;;;;10.06;100.00;100655.22;5013510;28;20030;-74
2021/10/31 01:25:54;;;;;;;13.57;4.82;;;;;;;10.05;100.00;100648.22;5012458;28;20080;-75
2021/10/31 01:28:26;;;;;;;19.20;5.35;;;;;;;10.03;100.00;100643.78;5008477;28;20054;-75
2021/10/31 01:31:38;;;;;;;19.50;5.43;;;;;;;10.01;100.00;100643.78;5014071;28;20056;-76
2021/10/31 01:34:28;;;;;;;14.70;5.35;;;;;;;10.02;100.00;100639.38;4996937;28;20042;-76
2021/10/31 01:36:59;;;;;;;13.73;4.70;;;;;;;10.02;100.00;100647.28;5005194;28;20021;-75
2021/10/31 01:39:31;;;;;;;13.90;4.97;;;;;;;10.02;100.00;100649.91;5022502;28;20347;-75
2021/10/31 01:42:33;;;;;;;16.50;5.20;;;;;;;9.99;100.00;100647.22;5013698;28;20125;-76
2021/10/31 01:45:13;;;;;;;13.57;4.60;;;;;;;9.94;100.00;100649.75;5013525;28;20045;-75
2021/10/31 01:47:43;;;;;;;15.75;5.72;;;;;;;9.92;100.00;100643.63;5015080;28;20026;-74
2021/10/31 01:50:21;;;;;;;14.82;5.30;;;;;;;9.88;100.00;100650.56;5013478;28;20030;-75
2021/10/31 01:52:52;;;;;;;19.75;5.07;;;;;;;9.87;100.00;100647.91;5011588;28;20128;-75
2021/10/31 01:55:31;;;;;;;16.75;5.75;;;;;;;9.86;100.00;100647.03;5010618;28;20428;-76
2021/10/31 01:58:01;;;;;;;17.08;6.30;;;;;;;9.85;100.00;100642.63;5005754;28;20034;-76
2021/10/31 02:00:30;;;;;;;13.75;5.78;;;;;;;9.81;100.00;100648.69;5012469;28;20055;-77
2021/10/31 02:03:01;;;;;;;16.35;4.68;;;;;;;9.84;100.00;100653.13;5015605;28;20104;-76
2021/10/31 02:05:29;;;;;;;13.93;5.65;;;;;;;9.84;100.00;100653.13;5010829;28;20022;-76
2021/10/31 02:08:00;;;;;;;12.65;4.95;;;;;;;9.79;100.00;100645.16;5011999;28;20026;-75
2021/10/31 02:10:29;;;;;;;22.25;5.50;;;;;;;9.74;100.00;100647.72;5010177;28;20071;-76
2021/10/31 02:12:54;;;;;;;13.15;4.78;;;;;;;9.72;100.00;100652.03;5015969;28;20497;-77
2021/10/31 02:15:22;;;;;;;21.40;5.45;;;;;;;9.72;100.00;100653.78;5011015;28;20018;-75
2021/10/31 02:17:51;;;;;;;18.48;5.75;;;;;;;9.70;100.00;100651.16;5010026;28;20394;-76
2021/10/31 02:20:18;;;;;;;12.73;5.00;;;;;;;9.67;100.00;100645.84;5014088;28;20033;-74
2021/10/31 02:22:50;;;;;;;20.38;5.90;;;;;;;9.72;100.00;100643.28;5012677;28;20041;-75
2021/10/31 02:25:15;;;;;;;14.43;5.30;;;;;;;9.72;100.00;100648.53;5009350;28;20034;-77
2021/10/31 02:27:43;;;;;;;12.73;5.45;;;;;;;9.70;100.00;100648.53;5013535;28;20420;-77
2021/10/31 02:30:09;;;;;;;12.77;5.10;;;;;;;9.67;100.00;100642.31;5013317;28;20025;-76
2021/10/31 02:32:35;;;;;;;16.90;5.00;;;;;;;9.62;100.00;100644.88;5010486;28;20061;-75
2021/10/31 02:35:00;;;;;;;12.40;5.40;;;;;;;9.61;100.00;100645.72;5012164;28;20119;-76
2021/10/31 02:37:27;;;;;;;12.63;4.55;;;;;;;9.61;100.00;100650.97;5011766;28;20045;-76
2021/10/31 02:39:53;;;;;;;12.15;4.70;;;;;;;9.62;100.00;100655.38;5013021;28;20037;-76
2021/10/31 02:42:19;;;;;;;18.83;5.38;;;;;;;9.60;100.00;100650.13;5012457;28;20045;-76
2021/10/31 02:44:45;;;;;;;17.35;6.35;;;;;;;9.57;100.00;100649.16;5012386;28;20038;-76
2021/10/31 02:47:17;;;;;;;20.02;6.18;;;;;;;9.56;100.00;100640.41;5008571;28;20105;-76
2021/10/31 02:49:43;;;;;;;18.27;5.88;;;;;;;9.53;100.00;100645.59;5013809;28;20026;-75
2021/10/31 02:52:20;;;;;;;15.52;5.40;;;;;;;9.53;100.00;100647.34;5010833;28;20036;-76
2021/10/31 02:55:12;;;;;;;10.57;4.82;;;;;;;9.50;100.00;100635.03;5015178;28;20037;-76
2021/10/31 02:57:41;;;;;;;18.27;6.25;;;;;;;9.49;100.00;100645.53;5005697;28;20073;-76
2021/10/31 03:00:07;;;;;;;11.07;5.30;;;;;;;9.50;100.00;100632.41;5007984;28;20021;-75
2021/10/31 03:02:33;;;;;;;11.80;5.65;;;;;;;9.55;100.00;100635.09;5010272;28;20025;-75
2021/10/31 03:05:00;;;;;;;23.83;6.85;;;;;;;9.52;100.00;100635.06;5010995;28;20037;-74
2021/10/31 03:07:27;;;;;;;23.55;8.68;;;;;;;9.51;100.00;100628.03;5010683;28;20125;-77
2021/10/31 03:09:52;;;;;;;24.15;9.93;;;;;;;9.53;100.00;100628.97;5012832;28;20026;-75
2021/10/31 03:12:19;;;;;;;34.97;12.30;;;;;;;9.49;100.00;100624.50;5011539;28;20032;-75
2021/10/31 03:14:44;;;;;;;39.85;14.20;;;;;;;9.48;100.00;100623.59;5013766;28;20021;-76
2021/10/31 03:17:10;;;;;;;44.58;15.50;;;;;;;9.43;100.00;100631.41;5013362;28;20033;-75
2021/10/31 03:19:38;;;;;;;43.28;16.55;;;;;;;9.43;100.00;100617.41;5012804;28;20030;-76
2021/10/31 03:22:06;;;;;;;42.25;15.52;;;;;;;9.41;100.00;100617.38;5010693;28;20021;-75
2021/10/31 03:24:33;;;;;;;37.63;15.50;;;;;;;9.39;100.00;100615.59;5011356;28;20053;-76
2021/10/31 03:26:58;;;;;;;44.83;14.77;;;;;;;9.38;100.00;100621.69;5010221;28;20391;-75
2021/10/31 03:29:25;;;;;;;40.20;13.82;;;;;;;9.37;100.00;100619.91;5012372;28;20040;-76
2021/10/31 03:31:53;;;;;;;36.25;13.98;;;;;;;9.37;100.00;100610.31;5011580;28;20017;-77
2021/10/31 03:34:19;;;;;;;29.88;14.18;;;;;;;9.36;100.00;100616.41;5012078;28;20049;-76
2021/10/31 03:36:46;;;;;;;42.20;13.65;;;;;;;9.33;100.00;100616.34;5010521;28;20474;-75
2021/10/31 03:39:11;;;;;;;27.23;10.88;;;;;;;9.31;100.00;100607.56;5007110;28;20022;-76
2021/10/31 03:41:37;;;;;;;22.20;9.10;;;;;;;9.27;100.00;100605.75;5012283;28;20055;-75
2021/10/31 03:44:03;;;;;;;20.08;8.05;;;;;;;9.24;100.00;100603.94;5011011;28;20469;-75
2021/10/31 03:46:29;;;;;;;13.82;8.23;;;;;;;9.22;100.00;100604.78;5012453;28;20042;-75
2021/10/31 03:48:54;;;;;;;16.42;8.43;;;;;;;9.21;100.00;100600.38;5011869;28;20092;-75
2021/10/31 03:51:20;;;;;;;14.93;8.68;;;;;;;9.19;100.00;100599.47;5011715;28;20026;-75
2021/10/31 03:53:45;;;;;;;16.67;7.93;;;;;;;9.17;100.00;100601.16;5010562;28;20089;-74
2021/10/31 03:56:10;;;;;;;14.25;8.50;;;;;;;9.12;100.00;100598.47;5010881;28;20040;-75
2021/10/31 03:58:36;;;;;;;13.63;7.70;;;;;;;9.11;100.00;100597.59;5012508;28;20049;-75
2021/10/31 04:01:01;;;;;;;15.65;7.72;;;;;;;9.13;100.00;100599.34;5010230;28;20497;-76
2021/10/31 04:03:27;;;;;;;13.30;7.57;;;;;;;9.14;100.00;100603.75;5011901;28;20034;-74
2021/10/31 04:05:52;;;;;;;17.88;8.40;;;;;;;9.11;100.00;100602.84;5011170;28;20093;-77
2021/10/31 04:08:18;;;;;;;16.40;8.02;;;;;;;9.14;100.00;100609.88;5018728;28;20025;-75
2021/10/31 04:10:43;;;;;;;20.30;9.20;;;;;;;9.17;100.00;100606.41;5020363;28;20050;-75
2021/10/31 04:13:09;;;;;;;16.05;9.63;;;;;;;9.15;100.00;100603.78;5013390;28;20030;-74
2021/10/31 04:15:34;;;;;;;22.73;9.35;;;;;;;9.15;100.00;100608.16;5008820;28;20499;-74
2021/10/31 04:17:59;;;;;;;21.98;12.85;;;;;;;9.14;100.00;100602.00;5009074;28;20045;-75
2021/10/31 04:20:25;;;;;;;30.58;14.05;;;;;;;9.15;100.00;100581.91;5025396;28;20029;-75
2021/10/31 04:22:51;;;;;;;25.60;15.02;;;;;;;9.14;100.00;100570.50;5012938;28;20026;-73
2021/10/31 04:25:17;;;;;;;30.23;14.80;;;;;;;9.17;100.00;100585.41;5010262;28;20071;-75
2021/10/31 04:27:43;;;;;;;20.48;12.57;;;;;;;9.16;100.00;100589.78;5027134;28;20042;-76
2021/10/31 04:30:09;;;;;;;25.35;13.63;;;;;;;9.17;100.00;100590.66;5013183;28;20026;-77
2021/10/31 04:32:36;;;;;;;20.48;13.70;;;;;;;9.15;100.00;100592.41;5010365;28;20030;-76
2021/10/31 04:35:02;;;;;;;20.00;13.95;;;;;;;9.16;100.00;100583.69;5010992;28;20018;-76
2021/10/31 04:37:28;;;;;;;22.90;12.90;;;;;;;9.13;100.00;100581.88;5012467;28;20037;-76
2021/10/31 04:39:54;;;;;;;19.20;13.43;;;;;;;9.16;100.00;100589.78;5012772;28;20624;-76
2021/10/31 04:42:20;;;;;;;20.48;13.63;;;;;;;9.17;100.00;100586.31;5005272;28;20386;-77
2021/10/31 04:44:45;;;;;;;23.48;12.85;;;;;;;9.16;100.00;100586.31;5010824;28;20030;-75
2021/10/31 04:47:11;;;;;;;23.25;13.25;;;;;;;9.16;100.00;100592.41;5015552;28;20045;-75
2021/10/31 04:49:36;;;;;;;18.58;12.15;;;;;;;9.16;100.00;100588.94;5013499;28;20034;-75
2021/10/31 04:52:03;;;;;;;26.50;14.15;;;;;;;9.13;100.00;100583.59;5010670;28;20029;-77
2021/10/31 04:54:29;;;;;;;22.67;14.07;;;;;;;9.10;100.00;100574.81;5013619;28;20470;-77
2021/10/31 04:56:55;;;;;;;23.58;13.73;;;;;;;9.09;100.00;100575.69;5014277;28;20037;-74
2021/10/31 04:59:20;;;;;;;19.92;14.10;;;;;;;9.09;100.00;100580.06;5013472;28;20054;-76
2021/10/31 05:01:46;;;;;;;28.73;16.20;;;;;;;9.07;100.00;100581.75;5007662;28;20034;-75
2021/10/31 05:04:12;;;;;;;28.77;14.98;;;;;;;9.03;100.00;100583.41;5029884;28;20026;-75
2021/10/31 05:06:38;;;;;;;29.00;15.48;;;;;;;9.02;100.00;100579.06;5007692;28;20030;-75
2021/10/31 05:09:04;;;;;;;24.25;14.80;;;;;;;9.00;100.00;100575.50;5014350;28;20049;-75
2021/10/31 05:11:29;;;;;;;29.40;15.32;;;;;;;8.98;100.00;100569.34;5014661;28;20030;-75
2021/10/31 05:13:55;;;;;;;27.42;15.63;;;;;;;8.97;100.00;100569.28;5015398;28;20042;-76
2021/10/31 05:16:20;;;;;;;25.13;15.82;;;;;;;8.93;100.00;100568.38;5013279;28;20494;-76
2021/10/31 05:18:46;;;;;;;26.50;15.98;;;;;;;8.91;100.00;100563.09;5013388;28;20524;-76
2021/10/31 05:21:11;;;;;;;24.98;16.02;;;;;;;8.90;100.00;100553.47;5013259;28;20054;-74
2021/10/31 05:23:37;;;;;;;27.48;16.27;;;;;;;8.93;100.00;100558.75;5014088;28;20029;-76
2021/10/31 05:26:03;;;;;;;26.58;15.60;;;;;;;8.93;100.00;100550.88;5019333;28;20133;-76
2021/10/31 05:28:28;;;;;;;32.38;17.08;;;;;;;8.90;100.00;100555.22;5013644;28;20053;-76
2021/10/31 05:30:54;;;;;;;25.27;15.20;;;;;;;8.86;100.00;100546.38;5018373;28;20068;-76
2021/10/31 05:33:22;;;;;;;29.48;17.13;;;;;;;8.87;100.00;100542.00;5018803;28;20042;-76
2021/10/31 05:35:47;;;;;;;30.33;16.85;;;;;;;8.84;100.00;100539.34;5014516;28;20022;-76
2021/10/31 05:38:17;;;;;;;30.23;17.08;;;;;;;8.80;100.00;100535.75;5016058;28;20045;-77
2021/10/31 05:40:43;;;;;;;30.90;17.17;;;;;;;8.79;100.00;100531.41;5011050;28;20044;-76
2021/10/31 05:43:09;;;;;;;35.72;17.55;;;;;;;8.78;100.00;100540.13;5020443;28;20420;-75
2021/10/31 05:45:35;;;;;;;26.17;16.58;;;;;;;8.76;100.00;100537.47;5015426;28;20026;-77
2021/10/31 05:48:00;;;;;;;29.15;15.98;;;;;;;8.76;100.00;100529.59;5013776;28;20030;-77
2021/10/31 05:50:26;;;;;;;28.55;16.63;;;;;;;8.75;100.00;100532.19;5013500;28;20037;-77
2021/10/31 05:52:51;;;;;;;34.15;16.75;;;;;;;8.74;100.00;100523.41;5016303;28;20030;-76
2021/10/31 05:55:17;;;;;;;26.38;15.82;;;;;;;8.73;100.00;100520.78;5014079;28;20022;-75
2021/10/31 05:57:43;;;;;;;30.02;16.20;;;;;;;8.71;100.00;100519.88;5014772;28;20160;-77
2021/10/31 06:00:11;;;;;;;34.58;16.85;;;;;;;8.70;100.00;100513.72;5014057;28;20050;-77
2021/10/31 06:02:37;;;;;;;28.42;16.10;;;;;;;8.72;100.00;100513.75;5017700;28;20087;-75
2021/10/31 06:05:04;;;;;;;28.75;15.10;;;;;;;8.72;100.00;100511.13;5017566;28;20477;-76
2021/10/31 06:07:29;;;;;;;37.30;16.38;;;;;;;8.69;100.00;100509.31;5021516;28;20485;-75
2021/10/31 06:09:55;;;;;;;28.77;16.02;;;;;;;8.69;100.00;100511.94;5013925;28;20033;-76
2021/10/31 06:12:20;;;;;;;29.38;15.00;;;;;;;8.71;100.00;100512.00;5015455;28;20092;-75
2021/10/31 06:14:46;;;;;;;25.00;14.93;;;;;;;8.70;100.00;100508.47;5015678;28;20061;-75
2021/10/31 06:17:11;;;;;;;30.08;16.13;;;;;;;8.71;100.00;100506.75;5012399;28;20049;-76
2021/10/31 06:19:37;;;;;;;27.40;14.55;;;;;;;8.73;100.00;100510.28;5015018;28;20124;-76
2021/10/31 06:22:04;;;;;;;24.95;15.25;;;;;;;8.71;100.00;100505.00;5014361;28;20037;-75
2021/10/31 06:24:29;;;;;;;30.38;14.75;;;;;;;8.71;100.00;100499.75;5015460;28;20029;-76
2021/10/31 06:26:55;;;;;;;25.20;14.60;;;;;;;8.71;100.00;100491.88;5018279;28;20117;-75
2021/10/31 06:29:20;;;;;;;23.42;13.15;;;;;;;8.70;100.00;100490.13;5030730;28;20065;-77
2021/10/31 06:31:46;;;;;;;36.40;15.32;;;;;;;8.70;100.00;100487.50;5012693;28;20022;-77
2021/10/31 06:34:11;;;;;;;27.73;14.52;;;;;;;8.70;100.00;100479.63;5014485;28;20036;-76
2021/10/31 06:36:37;;;;;;;26.02;14.85;;;;;;;8.68;100.00;100476.09;5010399;28;20042;-76
2021/10/31 06:39:03;;;;;;;28.70;15.40;;;;;;;8.64;100.00;100473.38;5012726;28;20053;-77
2021/10/31 06:41:28;;;;;;;26.52;14.40;;;;;;;8.65;100.00;100469.91;5013758;28;20034;-78
2021/10/31 06:43:54;;;;;;;35.45;15.90;;;;;;;8.62;100.00;100468.09;5012017;28;20041;-78
2021/10/31 06:46:19;;;;;;;29.48;14.93;;;;;;;8.66;100.00;100476.94;5012565;28;20032;-76
2021/10/31 06:48:45;;;;;;;29.15;15.18;;;;;;;8.64;100.00;100476.91;5012999;28;20033;-76
2021/10/31 06:51:10;;;;;;;27.80;15.02;;;;;;;8.66;100.00;100467.31;5013629;28;20029;-76
2021/10/31 06:53:36;;;;;;;33.00;15.93;;;;;;;8.67;100.00;100463.84;5018036;28;20028;-76
2021/10/31 06:56:02;;;;;;;27.48;15.15;;;;;;;8.70;100.00;100461.25;5015159;28;20103;-78
2021/10/31 06:58:27;;;;;;;25.52;15.40;;;;;;;8.69;100.00;100459.50;5013596;28;20030;-77
2021/10/31 07:00:53;;;;;;;32.80;16.20;;;;;;;8.74;100.00;100454.34;5020333;28;20032;-75
2021/10/31 07:03:19;;;;;;;31.10;15.48;;;;;;;8.74;100.00;100443.84;5012515;28;20044;-75
2021/10/31 07:05:44;;;;;;;32.45;15.98;;;;;;;8.74;100.00;100441.22;5011934;28;20108;-70
2021/10/31 07:08:10;;;;;;;24.08;14.88;;;;;;;8.77;100.00;100438.66;5012184;28;20384;-76
2021/10/31 07:10:35;;;;;;;31.83;15.25;;;;;;;8.82;100.00;100439.63;5013725;28;20113;-75
2021/10/31 07:13:00;;;;;;;28.77;14.15;;;;;;;8.84;100.00;100424.75;5014553;28;20109;-75
2021/10/31 07:15:27;;;;;;;27.90;15.10;;;;;;;8.87;100.00;100423.94;5014036;28;20045;-76
2021/10/31 07:17:54;;;;;;;28.08;15.93;;;;;;;8.89;100.00;100419.63;5013023;28;20394;-75
2021/10/31 07:20:20;;;;;;;30.23;14.57;;;;;;;8.93;100.00;100422.31;5010855;28;20025;-75
2021/10/31 07:22:45;;;;;;;30.45;15.30;;;;;;;8.97;100.00;100420.63;5013270;28;20037;-75
2021/10/31 07:25:12;;;;;;;28.05;15.45;;;;;;;8.99;100.00;100424.13;5012111;28;20084;-76
2021/10/31 07:27:38;;;;;;;26.98;14.50;;;;;;;9.03;100.00;100415.44;5018295;28;20049;-75
2021/10/31 07:30:04;;;;;;;25.88;15.13;;;;;;;9.06;100.00;100414.63;5013015;28;20029;-76
2021/10/31 07:32:30;;;;;;;24.60;14.32;;;;;;;9.09;100.00;100407.69;5014040;28;20038;-76
2021/10/31 07:34:55;;;;;;;25.33;14.48;;;;;;;9.16;100.00;100424.41;5009577;28;20105;-76
2021/10/31 07:37:20;;;;;;;25.83;13.85;;;;;;;9.21;100.00;100421.84;5013099;28;20152;-75
2021/10/31 07:39:46;;;;;;;22.17;15.13;;;;;;;9.25;100.00;100421.94;5022426;28;20108;-75
2021/10/31 07:42:13;;;;;;;22.23;13.55;;;;;;;9.33;100.00;100429.03;5013944;28;20040;-75
2021/10/31 07:44:38;;;;;;;23.02;14.45;;;;;;;9.41;100.00;100416.91;5016249;28;20041;-76
2021/10/31 07:47:04;;;;;;;21.90;14.13;;;;;;;9.47;100.00;100427.50;5016177;28;20026;-76
2021/10/31 07:49:29;;;;;;;23.90;14.00;;;;;;;9.53;100.00;100426.72;5013755;28;20088;-76
2021/10/31 07:51:55;;;;;;;23.80;13.52;;;;;;;9.59;100.00;100426.78;5011488;28;20023;-77
2021/10/31 07:54:26;;;;;;;20.13;12.63;;;;;;;9.68;100.00;100426.91;5021645;28;20049;-75
2021/10/31 07:56:58;;;;;;;20.35;12.75;;;;;;;9.74;100.00;100421.75;5012735;28;20029;-75
2021/10/31 07:59:24;;;;;;;18.77;11.93;;;;;;;9.84;100.00;100416.63;5011548;28;20354;-76
2021/10/31 08:01:49;;;;;;;20.27;11.93;;;;;;;9.90;100.00;100411.41;5011724;28;20034;-75
2021/10/31 08:04:15;;;;;;;17.10;11.45;;;;;;;9.96;100.00;100404.50;5011905;28;20025;-75
2021/10/31 08:06:41;;;;;;;17.55;11.32;;;;;;;10.00;100.00;100402.78;5011503;28;20030;-76
2021/10/31 08:09:06;;;;;;;17.88;11.07;;;;;;;10.09;100.00;100380.97;5012063;28;20568;-75
2021/10/31 08:11:32;;;;;;;19.55;12.25;;;;;;;10.16;100.00;100384.53;5012802;28;20057;-75
2021/10/31 08:13:57;;;;;;;15.95;10.82;;;;;;;10.19;100.00;100371.47;5013507;28;20083;-75
2021/10/31 08:16:24;;;;;;;16.17;10.40;;;;;;;10.24;100.00;100369.72;5012281;28;20022;-75
2021/10/31 08:18:51;;;;;;;14.15;10.25;;;;;;;10.28;100.00;100364.53;5014424;28;20045;-75
2021/10/31 08:21:17;;;;;;;14.00;10.30;;;;;;;10.34;100.00;100366.34;5016333;28;20381;-74
2021/10/31 08:23:42;;;;;;;20.65;11.35;;;;;;;10.38;100.00;100362.91;5014675;28;20060;-74
2021/10/31 08:26:08;;;;;;;12.65;8.93;;;;;;;10.44;100.00;100365.59;5017297;28;20119;-75
2021/10/31 08:28:37;;;;;;;12.80;9.82;;;;;;;10.57;100.00;100355.19;5004568;28;20069;-74
2021/10/31 08:31:03;;;;;;;17.75;9.88;;;;;;;10.65;100.00;100356.13;5015841;28;20030;-74
2021/10/31 08:33:33;;;;;;;13.35;9.38;;;;;;;10.74;100.00;100350.94;5012367;28;20080;-75
2021/10/31 08:35:59;;;;;;;13.98;8.98;;;;;;;10.80;100.00;100345.72;5016669;28;20088;-75
2021/10/31 08:38:25;;;;;;;12.07;8.07;;;;;;;10.88;100.00;100342.25;5025601;28;20032;-78
2021/10/31 08:40:53;;;;;;;12.02;8.90;;;;;;;10.92;100.00;100328.25;5018403;28;20034;-76
2021/10/31 08:43:20;;;;;;;14.52;8.38;;;;;;;11.00;100.00;100328.31;5015405;28;20478;-72
2021/10/31 08:45:45;;;;;;;12.60;8.15;;;;;;;11.07;100.00;100323.09;5016419;28;20048;-75
2021/10/31 08:48:13;;;;;;;12.65;8.32;;;;;;;11.13;100.00;100319.59;5014769;28;20026;-76
2021/10/31 08:50:38;;;;;;;11.85;7.10;;;;;;;11.24;100.00;100323.16;5020684;28;20124;-76
2021/10/31 08:53:05;;;;;;;9.23;7.50;;;;;;;11.27;100.00;100323.22;5018031;28;20045;-74
2021/10/31 08:55:31;;;;;;;9.90;7.72;;;;;;;11.31;100.00;100324.09;5025261;28;20021;-75
2021/10/31 08:57:57;;;;;;;9.07;6.82;;;;;;;11.38;100.00;100325.91;5017968;28;20049;-76
2021/10/31 09:00:23;;;;;;;8.85;6.65;;;;;;;11.45;100.00;100318.91;5016625;28;20060;-76
2021/10/31 09:02:48;;;;;;;11.48;6.97;;;;;;;11.50;100.00;100318.91;5021397;28;20048;-76
2021/10/31 09:05:14;;;;;;;10.00;7.07;;;;;;;11.58;100.00;100310.16;5016268;28;20026;-77
2021/10/31 09:07:40;;;;;;;8.75;6.68;;;;;;;11.66;100.00;100298.78;5018282;28;20029;-76
2021/10/31 09:10:06;;;;;;;7.13;6.10;;;;;;;11.70;100.00;100293.50;5018376;28;20048;-76
2021/10/31 09:12:32;;;;;;;11.10;5.88;;;;;;;11.72;100.00;100301.41;5015713;28;20037;-75
2021/10/31 09:14:57;;;;;;;15.13;6.22;;;;;;;11.74;100.00;100287.38;5016286;28;20026;-72
2021/10/31 09:17:22;;;;;;;7.80;5.53;;;;;;;11.79;100.00;100276.84;5014419;28;20068;-76
2021/10/31 09:19:48;;;;;;;9.23;5.47;;;;;;;11.86;100.00;100262.81;5011587;28;20026;-76
2021/10/31 09:22:13;;;;;;;9.55;5.82;;;;;;;11.92;100.00;100262.81;5016187;28;20030;-75
2021/10/31 09:24:39;;;;;;;7.47;5.57;;;;;;;11.93;100.00;100266.34;5014661;28;20026;-76
2021/10/31 09:27:05;;;;;;;6.40;4.85;;;;;;;11.91;99.82;100270.72;5014663;28;20053;-76
2021/10/31 09:29:34;;;;;;;6.90;5.72;;;;;;;11.83;100.00;100260.16;5018899;28;20172;-76
2021/10/31 09:32:00;;;;;;;8.85;4.80;;;;;;;11.77;100.00;100258.41;5013921;28;20026;-75
2021/10/31 09:34:29;;;;;;;7.88;5.18;;;;;;;11.69;100.00;100265.38;5015668;28;20049;-76
2021/10/31 09:36:56;;;;;;;7.20;5.63;;;;;;;11.63;100.00;100245.19;5014172;28;20052;-75
2021/10/31 09:39:22;;;;;;;6.65;4.93;;;;;;;11.60;100.00;100239.91;5011186;28;20513;-75
2021/10/31 09:41:48;;;;;;;9.02;5.40;;;;;;;11.54;100.00;100239.00;5017804;28;20030;-76
2021/10/31 09:44:23;;;;;;;7.60;5.63;;;;;;;11.53;100.00;100232.88;5016051;28;20042;-77
2021/10/31 09:46:49;;;;;;;6.43;5.15;;;;;;;11.55;100.00;100209.16;5017252;28;20398;-74
2021/10/31 09:49:15;;;;;;;7.90;5.30;;;;;;;11.55;100.00;100209.16;5015155;28;20017;-76
2021/10/31 09:51:44;;;;;;;9.52;4.93;;;;;;;11.59;100.00;100200.38;5015633;28;20034;-75
2021/10/31 09:54:11;;;;;;;7.30;4.90;;;;;;;11.64;100.00;100193.38;5024743;28;20025;-76
2021/10/31 09:56:38;;;;;;;10.48;5.20;;;;;;;11.68;100.00;100188.97;5022058;28;20029;-76
2021/10/31 09:59:12;;;;;;;11.63;5.18;;;;;;;11.72;100.00;100177.53;5015454;28;20025;-76
2021/10/31 10:04:34;;;;;;;7.05;5.20;;;;;;;11.84;100.00;100174.03;5018623;28;20061;-76
2021/10/31 10:07:04;;;;;;;7.57;5.20;;;;;;;11.89;100.00;100170.53;5010511;28;20173;-77
2021/10/31 10:09:30;;;;;;;6.00;4.65;;;;;;;11.92;100.00;100167.00;5013607;28;20052;-77
2021/10/31 10:11:58;;;;;;;6.75;4.57;;;;;;;11.94;100.00;100171.44;5011737;28;20565;-75
2021/10/31 10:14:31;;;;;;;7.05;4.53;;;;;;;11.96;100.00;100172.34;5015061;28;20112;-76
2021/10/31 10:17:01;;;;;;;;;;;;;;;11.95;100.00;100177.59;5013128;28;20034;-76
2021/10/31 10:19:32;;;;;;;6.50;4.68;;;;;;;11.96;100.00;100174.06;5019005;28;19914;-76
2021/10/31 10:22:08;;;;;;;5.10;4.60;;;;;;;11.96;100.00;100177.63;5020693;28;20056;-76
2021/10/31 10:24:37;;;;;;;7.38;4.32;;;;;;;11.98;100.00;100174.97;5019254;28;20029;-76
2021/10/31 10:27:05;;;;;;;7.88;4.55;;;;;;;12.01;100.00;100160.91;5012877;28;20062;-75
2021/10/31 10:29:35;;;;;;;6.00;3.83;;;;;;;12.05;100.00;100147.72;5012039;28;20493;-76
2021/10/31 10:32:04;;;;;;;6.95;3.70;;;;;;;12.06;99.59;100138.94;5013778;28;20034;-75
2021/10/31 10:34:44;;;;;;;8.23;4.35;;;;;;;12.07;99.43;100135.41;5013343;28;20044;-75
2021/10/31 10:37:12;;;;;;;5.65;4.10;;;;;;;12.13;99.79;100126.63;5014442;28;20034;-75
2021/10/31 10:39:40;;;;;;;6.38;4.15;;;;;;;12.14;99.83;100117.84;5013500;28;20034;-74
2021/10/31 10:42:06;;;;;;;6.63;3.90;;;;;;;12.17;99.50;100111.66;5011481;28;20030;-75
2021/10/31 10:44:36;;;;;;;4.97;3.95;;;;;;;12.18;99.18;100094.94;5009871;28;20060;-76
2021/10/31 10:47:12;;;;;;;10.77;4.65;;;;;;;12.22;98.88;100083.50;5013220;28;20558;-75
2021/10/31 10:49:39;;;;;;;8.20;3.85;;;;;;;12.29;98.59;100088.78;5012077;28;20049;-76
2021/10/31 10:52:20;;;;;;;4.47;3.20;;;;;;;12.28;98.73;100072.94;5011785;28;20053;-76
2021/10/31 10:54:50;;;;;;;5.70;3.60;;;;;;;12.32;98.51;100066.78;5013254;28;20037;-77
2021/10/31 10:57:16;;;;;;;3.33;2.90;;;;;;;12.35;98.05;100058.84;5014069;28;20041;-76
2021/10/31 10:59:42;;;;;;;5.65;2.70;;;;;;;12.31;97.43;100044.78;5013749;28;20494;-76
2021/10/31 11:02:07;;;;;;;5.30;2.63;;;;;;;12.32;97.71;100057.09;5012907;28;20025;-76
2021/10/31 11:04:34;;;;;;;5.53;3.05;;;;;;;12.31;97.70;100052.69;5009651;28;20030;-75
2021/10/31 11:07:00;;;;;;;19.23;3.33;;;;;;;12.36;98.19;100057.97;5007924;28;20048;-76
2021/10/31 11:09:26;;;;;;;5.85;2.50;;;;;;;12.35;98.20;100048.28;5014851;28;20044;-75
2021/10/31 11:11:51;;;;;;;4.10;2.58;;;;;;;12.35;98.05;100064.13;5013830;28;20373;-76
2021/10/31 11:14:18;;;;;;;5.13;2.58;;;;;;;12.36;98.42;100057.06;5015785;28;20021;-76
2021/10/31 11:16:43;;;;;;;3.22;2.35;;;;;;;12.37;98.48;100072.94;5011982;28;20458;-75
2021/10/31 11:19:10;;;;;;;4.20;2.38;;;;;;;12.36;98.01;100071.16;5013636;28;20093;-76